sensor_id;sensor_type;location;lat;lon;timestamp;P1;durP1;ratioP1;P2;durP2;ratioP2
61903;SDS011;47857;52.270;6.804;2022-09-16T00:01:25;4.85;;;0.88;;
61903;SDS011;47857;52.270;6.804;2022-09-16T00:03:54;4.22;;;0.70;;
61903;SDS011;47857;52.270;6.804;2022-09-16T00:08:50;4.75;;;1.00;;
61903;SDS011;47857;52.270;6.804;2022-09-16T00:11:16;4.72;;;0.95;;
61903;SDS011;47857;52.270;6.804;2022-09-16T00:13:42;3.03;;;0.90;;
61903;SDS011;47857;52.270;6.804;2022-09-16T00:16:09;4.18;;;0.98;;
61903;SDS011;47857;52.270;6.804;2022-09-16T00:18:35;4.35;;;1.00;;
61903;SDS011;47857;52.270;6.804;2022-09-16T00:21:05;4.50;;;0.98;;
61903;SDS011;47857;52.270;6.804;2022-09-16T00:23:31;6.45;;;1.02;;
61903;SDS011;47857;52.270;6.804;2022-09-16T00:25:57;6.47;;;1.30;;
61903;SDS011;47857;52.270;6.804;2022-09-16T00:28:23;9.27;;;1.45;;
61903;SDS011;47857;52.270;6.804;2022-09-16T00:30:48;4.57;;;1.58;;
61903;SDS011;47857;52.270;6.804;2022-09-16T00:33:14;5.20;;;1.08;;
61903;SDS011;47857;52.270;6.804;2022-09-16T00:35:40;5.40;;;1.05;;
61903;SDS011;47857;52.270;6.804;2022-09-16T00:38:05;6.97;;;0.98;;
61903;SDS011;47857;52.270;6.804;2022-09-16T00:40:31;3.20;;;1.00;;
61903;SDS011;47857;52.270;6.804;2022-09-16T00:42:57;4.10;;;1.30;;
61903;SDS011;47857;52.270;6.804;2022-09-16T00:45:24;3.30;;;0.90;;
61903;SDS011;47857;52.270;6.804;2022-09-16T00:48:05;3.38;;;1.20;;
61903;SDS011;47857;52.270;6.804;2022-09-16T00:50:36;6.93;;;1.60;;
61903;SDS011;47857;52.270;6.804;2022-09-16T00:53:08;8.80;;;1.30;;
61903;SDS011;47857;52.270;6.804;2022-09-16T00:55:37;5.50;;;1.30;;
61903;SDS011;47857;52.270;6.804;2022-09-16T00:58:09;4.25;;;1.10;;
61903;SDS011;47857;52.270;6.804;2022-09-16T01:00:43;8.55;;;1.40;;
61903;SDS011;47857;52.270;6.804;2022-09-16T01:03:09;7.32;;;1.60;;
61903;SDS011;47857;52.270;6.804;2022-09-16T01:05:34;4.72;;;1.17;;
61903;SDS011;47857;52.270;6.804;2022-09-16T01:08:02;4.50;;;1.08;;
61903;SDS011;47857;52.270;6.804;2022-09-16T01:10:27;3.75;;;1.20;;
61903;SDS011;47857;52.270;6.804;2022-09-16T01:12:57;3.47;;;0.95;;
61903;SDS011;47857;52.270;6.804;2022-09-16T01:15:32;8.20;;;1.27;;
61903;SDS011;47857;52.270;6.804;2022-09-16T01:31:26;3.90;;;1.00;;
61903;SDS011;47857;52.270;6.804;2022-09-16T01:41:49;6.68;;;1.45;;
61903;SDS011;47857;52.270;6.804;2022-09-16T01:47:18;4.82;;;1.10;;
61903;SDS011;47857;52.270;6.804;2022-09-16T01:54:58;6.30;;;1.48;;
61903;SDS011;47857;52.270;6.804;2022-09-16T01:57:50;9.98;;;1.65;;
61903;SDS011;47857;52.270;6.804;2022-09-16T02:00:24;11.38;;;1.95;;
61903;SDS011;47857;52.270;6.804;2022-09-16T02:05:19;7.85;;;1.60;;
61903;SDS011;47857;52.270;6.804;2022-09-16T02:08:14;6.38;;;1.70;;
61903;SDS011;47857;52.270;6.804;2022-09-16T02:10:45;8.40;;;1.77;;
61903;SDS011;47857;52.270;6.804;2022-09-16T02:13:17;8.57;;;1.90;;
61903;SDS011;47857;52.270;6.804;2022-09-16T02:15:48;8.45;;;2.30;;
61903;SDS011;47857;52.270;6.804;2022-09-16T02:18:16;6.93;;;2.00;;
61903;SDS011;47857;52.270;6.804;2022-09-16T02:20:45;9.45;;;2.10;;
61903;SDS011;47857;52.270;6.804;2022-09-16T02:23:17;8.60;;;1.98;;
61903;SDS011;47857;52.270;6.804;2022-09-16T02:25:45;5.93;;;1.70;;
61903;SDS011;47857;52.270;6.804;2022-09-16T02:28:16;4.88;;;2.03;;
61903;SDS011;47857;52.270;6.804;2022-09-16T02:30:46;7.70;;;1.70;;
61903;SDS011;47857;52.270;6.804;2022-09-16T02:33:14;6.53;;;1.95;;
61903;SDS011;47857;52.270;6.804;2022-09-16T02:35:40;5.82;;;1.80;;
61903;SDS011;47857;52.270;6.804;2022-09-16T02:38:13;6.50;;;2.10;;
61903;SDS011;47857;52.270;6.804;2022-09-16T02:40:47;8.63;;;1.90;;
61903;SDS011;47857;52.270;6.804;2022-09-16T02:43:16;7.28;;;1.95;;
61903;SDS011;47857;52.270;6.804;2022-09-16T02:45:47;6.82;;;1.90;;
61903;SDS011;47857;52.270;6.804;2022-09-16T02:53:42;7.68;;;1.92;;
61903;SDS011;47857;52.270;6.804;2022-09-16T02:56:22;7.70;;;2.00;;
61903;SDS011;47857;52.270;6.804;2022-09-16T02:58:50;8.05;;;2.25;;
61903;SDS011;47857;52.270;6.804;2022-09-16T03:01:15;9.20;;;2.10;;
61903;SDS011;47857;52.270;6.804;2022-09-16T03:03:42;7.10;;;1.90;;
61903;SDS011;47857;52.270;6.804;2022-09-16T03:08:33;6.45;;;2.00;;
61903;SDS011;47857;52.270;6.804;2022-09-16T03:11:02;9.02;;;2.60;;
61903;SDS011;47857;52.270;6.804;2022-09-16T03:13:43;7.40;;;2.40;;
61903;SDS011;47857;52.270;6.804;2022-09-16T03:16:15;8.50;;;2.00;;
61903;SDS011;47857;52.270;6.804;2022-09-16T03:26:35;8.68;;;1.80;;
61903;SDS011;47857;52.270;6.804;2022-09-16T03:29:24;7.43;;;1.50;;
61903;SDS011;47857;52.270;6.804;2022-09-16T03:32:46;6.22;;;1.45;;
61903;SDS011;47857;52.270;6.804;2022-09-16T03:35:10;5.15;;;1.35;;
61903;SDS011;47857;52.270;6.804;2022-09-16T03:37:39;6.55;;;1.35;;
61903;SDS011;47857;52.270;6.804;2022-09-16T03:40:13;5.38;;;1.38;;
61903;SDS011;47857;52.270;6.804;2022-09-16T03:42:41;5.72;;;1.23;;
61903;SDS011;47857;52.270;6.804;2022-09-16T03:45:09;8.13;;;1.35;;
61903;SDS011;47857;52.270;6.804;2022-09-16T03:47:38;5.38;;;1.40;;
61903;SDS011;47857;52.270;6.804;2022-09-16T03:50:03;3.83;;;1.30;;
61903;SDS011;47857;52.270;6.804;2022-09-16T03:52:29;6.82;;;1.50;;
61903;SDS011;47857;52.270;6.804;2022-09-16T03:54:55;3.83;;;1.30;;
61903;SDS011;47857;52.270;6.804;2022-09-16T03:57:20;6.75;;;1.60;;
61903;SDS011;47857;52.270;6.804;2022-09-16T03:59:45;7.50;;;1.58;;
61903;SDS011;47857;52.270;6.804;2022-09-16T04:02:11;6.50;;;1.70;;
61903;SDS011;47857;52.270;6.804;2022-09-16T04:04:36;7.57;;;1.83;;
61903;SDS011;47857;52.270;6.804;2022-09-16T04:07:02;6.13;;;1.60;;
61903;SDS011;47857;52.270;6.804;2022-09-16T04:09:28;8.90;;;1.63;;
61903;SDS011;47857;52.270;6.804;2022-09-16T04:11:53;5.80;;;1.50;;
61903;SDS011;47857;52.270;6.804;2022-09-16T04:14:19;7.47;;;1.60;;
61903;SDS011;47857;52.270;6.804;2022-09-16T04:16:44;4.80;;;1.60;;
61903;SDS011;47857;52.270;6.804;2022-09-16T04:19:11;6.05;;;1.52;;
61903;SDS011;47857;52.270;6.804;2022-09-16T04:21:39;5.35;;;1.45;;
61903;SDS011;47857;52.270;6.804;2022-09-16T04:24:06;4.75;;;1.40;;
61903;SDS011;47857;52.270;6.804;2022-09-16T04:26:32;4.70;;;1.20;;
61903;SDS011;47857;52.270;6.804;2022-09-16T04:28:57;3.08;;;1.10;;
61903;SDS011;47857;52.270;6.804;2022-09-16T04:31:23;4.50;;;1.40;;
61903;SDS011;47857;52.270;6.804;2022-09-16T04:33:48;4.82;;;1.50;;
61903;SDS011;47857;52.270;6.804;2022-09-16T04:36:15;5.97;;;1.35;;
61903;SDS011;47857;52.270;6.804;2022-09-16T04:38:43;3.28;;;1.10;;
61903;SDS011;47857;52.270;6.804;2022-09-16T04:41:16;6.43;;;1.50;;
61903;SDS011;47857;52.270;6.804;2022-09-16T04:43:43;5.10;;;1.48;;
61903;SDS011;47857;52.270;6.804;2022-09-16T04:46:09;7.13;;;1.70;;
61903;SDS011;47857;52.270;6.804;2022-09-16T04:48:34;6.03;;;1.83;;
61903;SDS011;47857;52.270;6.804;2022-09-16T04:51:04;11.13;;;4.20;;
61903;SDS011;47857;52.270;6.804;2022-09-16T04:53:34;13.00;;;6.05;;
61903;SDS011;47857;52.270;6.804;2022-09-16T04:56:03;8.32;;;3.25;;
61903;SDS011;47857;52.270;6.804;2022-09-16T04:58:29;10.88;;;3.33;;
61903;SDS011;47857;52.270;6.804;2022-09-16T05:00:55;7.45;;;3.45;;
61903;SDS011;47857;52.270;6.804;2022-09-16T05:03:20;8.77;;;2.00;;
61903;SDS011;47857;52.270;6.804;2022-09-16T05:05:46;4.68;;;1.40;;
61903;SDS011;47857;52.270;6.804;2022-09-16T05:08:11;5.85;;;1.67;;
61903;SDS011;47857;52.270;6.804;2022-09-16T05:10:37;6.43;;;1.75;;
61903;SDS011;47857;52.270;6.804;2022-09-16T05:13:02;5.60;;;1.70;;
61903;SDS011;47857;52.270;6.804;2022-09-16T05:15:28;10.88;;;2.20;;
61903;SDS011;47857;52.270;6.804;2022-09-16T05:17:54;10.75;;;2.30;;
61903;SDS011;47857;52.270;6.804;2022-09-16T05:20:19;12.50;;;2.20;;
61903;SDS011;47857;52.270;6.804;2022-09-16T05:22:47;6.00;;;2.20;;
61903;SDS011;47857;52.270;6.804;2022-09-16T05:25:13;10.20;;;2.20;;
61903;SDS011;47857;52.270;6.804;2022-09-16T05:27:39;4.50;;;1.90;;
61903;SDS011;47857;52.270;6.804;2022-09-16T05:30:05;6.88;;;2.40;;
61903;SDS011;47857;52.270;6.804;2022-09-16T05:32:31;6.05;;;2.10;;
61903;SDS011;47857;52.270;6.804;2022-09-16T05:34:57;4.90;;;1.67;;
61903;SDS011;47857;52.270;6.804;2022-09-16T05:37:22;10.15;;;2.15;;
61903;SDS011;47857;52.270;6.804;2022-09-16T05:39:48;6.45;;;1.90;;
61903;SDS011;47857;52.270;6.804;2022-09-16T05:42:14;7.30;;;2.35;;
61903;SDS011;47857;52.270;6.804;2022-09-16T05:44:39;7.43;;;2.60;;
61903;SDS011;47857;52.270;6.804;2022-09-16T05:47:05;7.55;;;2.25;;
61903;SDS011;47857;52.270;6.804;2022-09-16T05:49:30;5.00;;;1.85;;
61903;SDS011;47857;52.270;6.804;2022-09-16T05:51:56;5.97;;;2.15;;
61903;SDS011;47857;52.270;6.804;2022-09-16T05:54:21;8.98;;;2.10;;
61903;SDS011;47857;52.270;6.804;2022-09-16T05:56:49;6.43;;;1.80;;
61903;SDS011;47857;52.270;6.804;2022-09-16T05:59:15;8.68;;;2.10;;
61903;SDS011;47857;52.270;6.804;2022-09-16T06:01:41;6.78;;;2.03;;
61903;SDS011;47857;52.270;6.804;2022-09-16T06:04:09;5.63;;;1.90;;
61903;SDS011;47857;52.270;6.804;2022-09-16T06:06:36;8.23;;;1.98;;
61903;SDS011;47857;52.270;6.804;2022-09-16T06:09:04;4.63;;;1.52;;
61903;SDS011;47857;52.270;6.804;2022-09-16T06:11:35;11.10;;;3.60;;
61903;SDS011;47857;52.270;6.804;2022-09-16T06:14:02;6.25;;;2.72;;
61903;SDS011;47857;52.270;6.804;2022-09-16T06:16:28;7.70;;;2.40;;
61903;SDS011;47857;52.270;6.804;2022-09-16T06:18:57;10.32;;;2.13;;
61903;SDS011;47857;52.270;6.804;2022-09-16T06:21:24;9.27;;;3.55;;
61903;SDS011;47857;52.270;6.804;2022-09-16T06:23:50;10.57;;;3.33;;
61903;SDS011;47857;52.270;6.804;2022-09-16T06:26:20;6.35;;;2.20;;
61903;SDS011;47857;52.270;6.804;2022-09-16T06:28:47;7.63;;;1.90;;
61903;SDS011;47857;52.270;6.804;2022-09-16T06:31:16;6.07;;;1.80;;
61903;SDS011;47857;52.270;6.804;2022-09-16T06:33:47;6.95;;;1.90;;
61903;SDS011;47857;52.270;6.804;2022-09-16T06:36:22;6.72;;;1.33;;
61903;SDS011;47857;52.270;6.804;2022-09-16T06:38:51;6.45;;;1.85;;
61903;SDS011;47857;52.270;6.804;2022-09-16T06:41:17;7.22;;;1.75;;
61903;SDS011;47857;52.270;6.804;2022-09-16T06:43:44;6.15;;;1.60;;
61903;SDS011;47857;52.270;6.804;2022-09-16T06:46:11;8.43;;;1.63;;
61903;SDS011;47857;52.270;6.804;2022-09-16T06:48:41;7.57;;;1.67;;
61903;SDS011;47857;52.270;6.804;2022-09-16T06:51:10;6.15;;;1.55;;
61903;SDS011;47857;52.270;6.804;2022-09-16T06:53:38;9.82;;;2.40;;
61903;SDS011;47857;52.270;6.804;2022-09-16T06:56:05;6.20;;;1.58;;
61903;SDS011;47857;52.270;6.804;2022-09-16T06:58:32;5.00;;;1.40;;
61903;SDS011;47857;52.270;6.804;2022-09-16T07:01:05;3.35;;;1.00;;
61903;SDS011;47857;52.270;6.804;2022-09-16T07:03:32;5.50;;;1.40;;
61903;SDS011;47857;52.270;6.804;2022-09-16T07:05:59;4.65;;;1.30;;
61903;SDS011;47857;52.270;6.804;2022-09-16T07:08:28;6.00;;;1.20;;
61903;SDS011;47857;52.270;6.804;2022-09-16T07:10:58;3.15;;;0.80;;
61903;SDS011;47857;52.270;6.804;2022-09-16T07:13:28;4.40;;;0.90;;
61903;SDS011;47857;52.270;6.804;2022-09-16T07:15:54;3.78;;;0.90;;
61903;SDS011;47857;52.270;6.804;2022-09-16T07:18:24;3.20;;;0.80;;
61903;SDS011;47857;52.270;6.804;2022-09-16T07:20:49;3.85;;;0.85;;
61903;SDS011;47857;52.270;6.804;2022-09-16T07:23:14;4.00;;;0.90;;
61903;SDS011;47857;52.270;6.804;2022-09-16T07:25:40;3.58;;;1.00;;
61903;SDS011;47857;52.270;6.804;2022-09-16T07:28:05;7.30;;;1.08;;
61903;SDS011;47857;52.270;6.804;2022-09-16T07:30:31;4.85;;;1.08;;
61903;SDS011;47857;52.270;6.804;2022-09-16T07:32:58;5.72;;;1.40;;
61903;SDS011;47857;52.270;6.804;2022-09-16T07:35:24;5.22;;;1.55;;
61903;SDS011;47857;52.270;6.804;2022-09-16T07:37:49;6.90;;;1.50;;
61903;SDS011;47857;52.270;6.804;2022-09-16T07:40:15;7.30;;;2.30;;
61903;SDS011;47857;52.270;6.804;2022-09-16T07:42:41;9.40;;;1.63;;
61903;SDS011;47857;52.270;6.804;2022-09-16T07:45:07;8.10;;;1.67;;
61903;SDS011;47857;52.270;6.804;2022-09-16T07:47:33;7.22;;;1.42;;
61903;SDS011;47857;52.270;6.804;2022-09-16T07:49:58;6.50;;;1.17;;
61903;SDS011;47857;52.270;6.804;2022-09-16T07:52:24;6.70;;;1.23;;
61903;SDS011;47857;52.270;6.804;2022-09-16T07:54:56;6.47;;;1.02;;
61903;SDS011;47857;52.270;6.804;2022-09-16T07:57:22;8.07;;;1.30;;
61903;SDS011;47857;52.270;6.804;2022-09-16T07:59:48;8.15;;;1.50;;
61903;SDS011;47857;52.270;6.804;2022-09-16T08:02:14;4.72;;;1.17;;
61903;SDS011;47857;52.270;6.804;2022-09-16T08:04:40;7.50;;;1.30;;
61903;SDS011;47857;52.270;6.804;2022-09-16T08:07:05;5.95;;;1.25;;
61903;SDS011;47857;52.270;6.804;2022-09-16T08:09:31;7.78;;;1.30;;
61903;SDS011;47857;52.270;6.804;2022-09-16T08:11:57;6.60;;;1.30;;
61903;SDS011;47857;52.270;6.804;2022-09-16T08:14:23;7.03;;;1.10;;
61903;SDS011;47857;52.270;6.804;2022-09-16T08:16:48;6.82;;;1.50;;
61903;SDS011;47857;52.270;6.804;2022-09-16T08:19:17;7.88;;;1.40;;
61903;SDS011;47857;52.270;6.804;2022-09-16T08:21:43;8.02;;;1.05;;
61903;SDS011;47857;52.270;6.804;2022-09-16T08:24:08;7.55;;;1.10;;
61903;SDS011;47857;52.270;6.804;2022-09-16T08:26:34;6.85;;;1.30;;
61903;SDS011;47857;52.270;6.804;2022-09-16T08:29:00;9.80;;;1.02;;
61903;SDS011;47857;52.270;6.804;2022-09-16T08:31:26;7.30;;;1.00;;
61903;SDS011;47857;52.270;6.804;2022-09-16T08:33:55;8.30;;;1.08;;
61903;SDS011;47857;52.270;6.804;2022-09-16T08:36:21;6.05;;;1.10;;
61903;SDS011;47857;52.270;6.804;2022-09-16T08:38:49;7.30;;;0.98;;
61903;SDS011;47857;52.270;6.804;2022-09-16T08:43:53;6.63;;;1.10;;
61903;SDS011;47857;52.270;6.804;2022-09-16T08:46:33;7.65;;;1.38;;
61903;SDS011;47857;52.270;6.804;2022-09-16T08:49:12;6.70;;;1.00;;
61903;SDS011;47857;52.270;6.804;2022-09-16T08:51:42;8.95;;;1.50;;
61903;SDS011;47857;52.270;6.804;2022-09-16T08:54:10;7.82;;;1.20;;
61903;SDS011;47857;52.270;6.804;2022-09-16T08:56:50;8.15;;;1.10;;
61903;SDS011;47857;52.270;6.804;2022-09-16T08:59:19;6.78;;;1.10;;
61903;SDS011;47857;52.270;6.804;2022-09-16T09:02:21;5.82;;;1.23;;
61903;SDS011;47857;52.270;6.804;2022-09-16T09:04:46;7.57;;;1.35;;
61903;SDS011;47857;52.270;6.804;2022-09-16T09:07:26;10.57;;;1.55;;
61903;SDS011;47857;52.270;6.804;2022-09-16T09:12:38;8.65;;;1.30;;
61903;SDS011;47857;52.270;6.804;2022-09-16T09:21:15;6.72;;;1.50;;
61903;SDS011;47857;52.270;6.804;2022-09-16T09:23:35;3.28;;;1.10;;
61903;SDS011;47857;52.270;6.804;2022-09-16T09:39:42;10.52;;;1.40;;
61903;SDS011;47857;52.270;6.804;2022-09-16T09:42:15;8.32;;;1.02;;
61903;SDS011;47857;52.270;6.804;2022-09-16T09:47:28;7.65;;;1.02;;
61903;SDS011;47857;52.270;6.804;2022-09-16T09:49:57;5.70;;;1.15;;
61903;SDS011;47857;52.270;6.804;2022-09-16T09:52:32;5.18;;;0.90;;
61903;SDS011;47857;52.270;6.804;2022-09-16T09:55:13;8.77;;;1.52;;
61903;SDS011;47857;52.270;6.804;2022-09-16T09:57:40;6.00;;;1.17;;
61903;SDS011;47857;52.270;6.804;2022-09-16T10:00:17;6.55;;;1.27;;
61903;SDS011;47857;52.270;6.804;2022-09-16T10:02:45;7.80;;;1.00;;
61903;SDS011;47857;52.270;6.804;2022-09-16T10:05:20;9.10;;;1.38;;
61903;SDS011;47857;52.270;6.804;2022-09-16T10:07:48;5.88;;;1.00;;
61903;SDS011;47857;52.270;6.804;2022-09-16T10:10:16;3.15;;;0.80;;
61903;SDS011;47857;52.270;6.804;2022-09-16T10:12:45;6.07;;;1.08;;
61903;SDS011;47857;52.270;6.804;2022-09-16T10:15:20;10.25;;;1.60;;
61903;SDS011;47857;52.270;6.804;2022-09-16T10:17:48;7.70;;;0.93;;
61903;SDS011;47857;52.270;6.804;2022-09-16T10:23:02;6.55;;;0.90;;
61903;SDS011;47857;52.270;6.804;2022-09-16T10:25:31;4.68;;;1.23;;
61903;SDS011;47857;52.270;6.804;2022-09-16T10:28:01;6.53;;;1.10;;
61903;SDS011;47857;52.270;6.804;2022-09-16T10:30:29;8.73;;;0.93;;
61903;SDS011;47857;52.270;6.804;2022-09-16T10:33:01;8.05;;;1.25;;
61903;SDS011;47857;52.270;6.804;2022-09-16T10:35:32;9.20;;;1.60;;
61903;SDS011;47857;52.270;6.804;2022-09-16T10:40:50;12.38;;;1.45;;
61903;SDS011;47857;52.270;6.804;2022-09-16T10:43:19;4.85;;;0.80;;
61903;SDS011;47857;52.270;6.804;2022-09-16T10:45:46;8.30;;;1.25;;
61903;SDS011;47857;52.270;6.804;2022-09-16T10:48:16;6.32;;;1.00;;
61903;SDS011;47857;52.270;6.804;2022-09-16T10:50:51;4.78;;;0.98;;
61903;SDS011;47857;52.270;6.804;2022-09-16T10:53:36;6.10;;;1.08;;
61903;SDS011;47857;52.270;6.804;2022-09-16T10:56:15;10.00;;;1.35;;
61903;SDS011;47857;52.270;6.804;2022-09-16T10:58:45;7.47;;;1.48;;
61903;SDS011;47857;52.270;6.804;2022-09-16T11:04:02;3.53;;;0.65;;
61903;SDS011;47857;52.270;6.804;2022-09-16T11:09:04;6.68;;;1.80;;
61903;SDS011;47857;52.270;6.804;2022-09-16T11:17:09;3.45;;;1.20;;
61903;SDS011;47857;52.270;6.804;2022-09-16T11:27:48;6.68;;;0.93;;
61903;SDS011;47857;52.270;6.804;2022-09-16T11:30:19;6.70;;;1.60;;
61903;SDS011;47857;52.270;6.804;2022-09-16T11:41:31;8.25;;;1.52;;
61903;SDS011;47857;52.270;6.804;2022-09-16T11:47:07;5.00;;;1.08;;
61903;SDS011;47857;52.270;6.804;2022-09-16T11:49:39;9.50;;;1.52;;
61903;SDS011;47857;52.270;6.804;2022-09-16T11:52:27;9.73;;;1.50;;
61903;SDS011;47857;52.270;6.804;2022-09-16T11:57:48;6.93;;;1.15;;
61903;SDS011;47857;52.270;6.804;2022-09-16T12:00:17;8.57;;;1.20;;
61903;SDS011;47857;52.270;6.804;2022-09-16T12:05:35;6.32;;;1.30;;
61903;SDS011;47857;52.270;6.804;2022-09-16T12:10:53;6.28;;;1.30;;
61903;SDS011;47857;52.270;6.804;2022-09-16T12:13:22;9.23;;;1.50;;
61903;SDS011;47857;52.270;6.804;2022-09-16T12:15:57;3.92;;;0.90;;
61903;SDS011;47857;52.270;6.804;2022-09-16T12:18:30;9.70;;;1.38;;
61903;SDS011;47857;52.270;6.804;2022-09-16T12:21:17;8.43;;;1.10;;
61903;SDS011;47857;52.270;6.804;2022-09-16T12:27:03;9.80;;;1.30;;
61903;SDS011;47857;52.270;6.804;2022-09-16T12:29:39;8.27;;;1.10;;
61903;SDS011;47857;52.270;6.804;2022-09-16T12:35:14;6.50;;;1.02;;
61903;SDS011;47857;52.270;6.804;2022-09-16T12:37:48;6.63;;;1.10;;
61903;SDS011;47857;52.270;6.804;2022-09-16T12:40:21;7.45;;;1.20;;
61903;SDS011;47857;52.270;6.804;2022-09-16T12:54:15;7.88;;;1.50;;
61903;SDS011;47857;52.270;6.804;2022-09-16T13:02:32;8.20;;;1.30;;
61903;SDS011;47857;52.270;6.804;2022-09-16T13:05:10;12.20;;;1.52;;
61903;SDS011;47857;52.270;6.804;2022-09-16T13:08:01;10.23;;;1.60;;
61903;SDS011;47857;52.270;6.804;2022-09-16T13:10:38;12.25;;;1.80;;
61903;SDS011;47857;52.270;6.804;2022-09-16T13:13:04;8.52;;;1.60;;
61903;SDS011;47857;52.270;6.804;2022-09-16T13:15:31;9.75;;;1.60;;
61903;SDS011;47857;52.270;6.804;2022-09-16T13:20:39;11.48;;;1.70;;
61903;SDS011;47857;52.270;6.804;2022-09-16T13:26:03;10.73;;;1.48;;
61903;SDS011;47857;52.270;6.804;2022-09-16T13:28:40;15.18;;;2.45;;
61903;SDS011;47857;52.270;6.804;2022-09-16T13:33:43;9.48;;;1.45;;
61903;SDS011;47857;52.270;6.804;2022-09-16T13:38:46;9.63;;;1.55;;
61903;SDS011;47857;52.270;6.804;2022-09-16T13:43:59;8.48;;;1.67;;
61903;SDS011;47857;52.270;6.804;2022-09-16T13:49:03;5.38;;;1.10;;
61903;SDS011;47857;52.270;6.804;2022-09-16T13:51:38;7.05;;;1.00;;
61903;SDS011;47857;52.270;6.804;2022-09-16T13:54:13;12.85;;;1.40;;
61903;SDS011;47857;52.270;6.804;2022-09-16T13:57:00;7.55;;;1.25;;
61903;SDS011;47857;52.270;6.804;2022-09-16T14:08:37;8.80;;;1.33;;
61903;SDS011;47857;52.270;6.804;2022-09-16T14:13:34;6.65;;;1.13;;
61903;SDS011;47857;52.270;6.804;2022-09-16T14:16:03;6.78;;;1.33;;
61903;SDS011;47857;52.270;6.804;2022-09-16T14:18:36;9.90;;;1.10;;
61903;SDS011;47857;52.270;6.804;2022-09-16T14:21:16;4.80;;;0.85;;
61903;SDS011;47857;52.270;6.804;2022-09-16T14:23:45;4.60;;;0.70;;
61903;SDS011;47857;52.270;6.804;2022-09-16T14:26:11;9.38;;;0.90;;
61903;SDS011;47857;52.270;6.804;2022-09-16T14:28:38;8.98;;;0.90;;
61903;SDS011;47857;52.270;6.804;2022-09-16T14:31:28;6.32;;;0.98;;
61903;SDS011;47857;52.270;6.804;2022-09-16T14:33:57;7.75;;;1.33;;
61903;SDS011;47857;52.270;6.804;2022-09-16T14:36:29;5.97;;;1.10;;
61903;SDS011;47857;52.270;6.804;2022-09-16T14:39:08;6.40;;;0.98;;
61903;SDS011;47857;52.270;6.804;2022-09-16T14:41:40;3.92;;;0.80;;
61903;SDS011;47857;52.270;6.804;2022-09-16T14:44:32;6.80;;;1.25;;
61903;SDS011;47857;52.270;6.804;2022-09-16T14:47:26;5.80;;;1.05;;
61903;SDS011;47857;52.270;6.804;2022-09-16T14:49:55;6.30;;;1.20;;
61903;SDS011;47857;52.270;6.804;2022-09-16T14:52:27;8.10;;;1.15;;
61903;SDS011;47857;52.270;6.804;2022-09-16T14:54:56;8.02;;;1.35;;
61903;SDS011;47857;52.270;6.804;2022-09-16T14:57:28;11.18;;;1.63;;
61903;SDS011;47857;52.270;6.804;2022-09-16T14:59:55;9.13;;;1.30;;
61903;SDS011;47857;52.270;6.804;2022-09-16T15:07:38;8.75;;;1.38;;
61903;SDS011;47857;52.270;6.804;2022-09-16T15:10:06;9.88;;;1.50;;
61903;SDS011;47857;52.270;6.804;2022-09-16T15:12:41;9.15;;;1.63;;
61903;SDS011;47857;52.270;6.804;2022-09-16T15:15:14;12.52;;;3.20;;
61903;SDS011;47857;52.270;6.804;2022-09-16T15:17:43;17.08;;;4.55;;
61903;SDS011;47857;52.270;6.804;2022-09-16T15:20:25;10.70;;;1.85;;
61903;SDS011;47857;52.270;6.804;2022-09-16T15:22:52;14.50;;;2.15;;
61903;SDS011;47857;52.270;6.804;2022-09-16T15:25:22;12.23;;;3.47;;
61903;SDS011;47857;52.270;6.804;2022-09-16T15:28:13;13.48;;;2.92;;
61903;SDS011;47857;52.270;6.804;2022-09-16T15:30:45;12.27;;;1.60;;
61903;SDS011;47857;52.270;6.804;2022-09-16T15:33:32;9.30;;;1.60;;
61903;SDS011;47857;52.270;6.804;2022-09-16T15:36:02;10.10;;;1.60;;
61903;SDS011;47857;52.270;6.804;2022-09-16T15:38:28;12.35;;;1.77;;
61903;SDS011;47857;52.270;6.804;2022-09-16T15:41:05;8.68;;;1.58;;
61903;SDS011;47857;52.270;6.804;2022-09-16T15:43:42;10.27;;;1.52;;
61903;SDS011;47857;52.270;6.804;2022-09-16T15:46:16;8.37;;;1.60;;
61903;SDS011;47857;52.270;6.804;2022-09-16T15:48:46;12.77;;;1.80;;
61903;SDS011;47857;52.270;6.804;2022-09-16T15:51:57;11.15;;;1.70;;
61903;SDS011;47857;52.270;6.804;2022-09-16T15:56:48;14.32;;;1.90;;
61903;SDS011;47857;52.270;6.804;2022-09-16T15:59:26;14.88;;;2.13;;
61903;SDS011;47857;52.270;6.804;2022-09-16T16:01:56;12.60;;;2.25;;
61903;SDS011;47857;52.270;6.804;2022-09-16T16:04:28;20.08;;;2.83;;
61903;SDS011;47857;52.270;6.804;2022-09-16T16:06:56;14.43;;;2.38;;
61903;SDS011;47857;52.270;6.804;2022-09-16T16:11:54;13.10;;;1.80;;
61903;SDS011;47857;52.270;6.804;2022-09-16T16:14:20;8.90;;;1.60;;
61903;SDS011;47857;52.270;6.804;2022-09-16T16:16:48;10.95;;;1.92;;
61903;SDS011;47857;52.270;6.804;2022-09-16T16:19:14;9.95;;;2.30;;
61903;SDS011;47857;52.270;6.804;2022-09-16T16:21:39;9.90;;;2.40;;
61903;SDS011;47857;52.270;6.804;2022-09-16T16:24:08;13.27;;;1.80;;
61903;SDS011;47857;52.270;6.804;2022-09-16T16:26:34;11.95;;;1.70;;
61903;SDS011;47857;52.270;6.804;2022-09-16T16:29:02;9.95;;;1.60;;
61903;SDS011;47857;52.270;6.804;2022-09-16T16:31:28;10.20;;;1.90;;
61903;SDS011;47857;52.270;6.804;2022-09-16T16:33:53;12.00;;;2.08;;
61903;SDS011;47857;52.270;6.804;2022-09-16T16:36:19;10.43;;;2.13;;
61903;SDS011;47857;52.270;6.804;2022-09-16T16:38:46;15.73;;;2.08;;
61903;SDS011;47857;52.270;6.804;2022-09-16T16:41:18;12.15;;;2.10;;
61903;SDS011;47857;52.270;6.804;2022-09-16T16:43:47;12.57;;;2.10;;
61903;SDS011;47857;52.270;6.804;2022-09-16T16:46:14;13.02;;;2.28;;
61903;SDS011;47857;52.270;6.804;2022-09-16T16:48:39;14.48;;;2.75;;
61903;SDS011;47857;52.270;6.804;2022-09-16T16:51:06;9.27;;;2.03;;
61903;SDS011;47857;52.270;6.804;2022-09-16T16:53:34;12.63;;;1.75;;
61903;SDS011;47857;52.270;6.804;2022-09-16T16:56:07;8.02;;;1.50;;
61903;SDS011;47857;52.270;6.804;2022-09-16T16:58:36;8.70;;;1.58;;
61903;SDS011;47857;52.270;6.804;2022-09-16T17:01:10;8.35;;;1.60;;
61903;SDS011;47857;52.270;6.804;2022-09-16T17:03:38;9.18;;;1.38;;
61903;SDS011;47857;52.270;6.804;2022-09-16T17:06:04;11.48;;;1.30;;
61903;SDS011;47857;52.270;6.804;2022-09-16T17:08:32;10.48;;;1.30;;
61903;SDS011;47857;52.270;6.804;2022-09-16T17:11:07;10.27;;;1.50;;
61903;SDS011;47857;52.270;6.804;2022-09-16T17:13:35;9.55;;;1.25;;
61903;SDS011;47857;52.270;6.804;2022-09-16T17:16:01;7.25;;;1.17;;
61903;SDS011;47857;52.270;6.804;2022-09-16T17:18:27;10.30;;;1.52;;
61903;SDS011;47857;52.270;6.804;2022-09-16T17:20:53;5.25;;;1.05;;
61903;SDS011;47857;52.270;6.804;2022-09-16T17:23:20;6.03;;;1.00;;
61903;SDS011;47857;52.270;6.804;2022-09-16T17:25:48;6.60;;;1.20;;
61903;SDS011;47857;52.270;6.804;2022-09-16T17:28:15;4.35;;;1.33;;
61903;SDS011;47857;52.270;6.804;2022-09-16T17:30:42;5.72;;;1.08;;
61903;SDS011;47857;52.270;6.804;2022-09-16T17:33:08;6.55;;;1.20;;
61903;SDS011;47857;52.270;6.804;2022-09-16T17:35:33;4.82;;;1.33;;
61903;SDS011;47857;52.270;6.804;2022-09-16T17:38:00;7.43;;;1.17;;
61903;SDS011;47857;52.270;6.804;2022-09-16T17:40:26;10.48;;;1.40;;
61903;SDS011;47857;52.270;6.804;2022-09-16T17:42:51;7.47;;;1.38;;
61903;SDS011;47857;52.270;6.804;2022-09-16T17:45:17;11.05;;;1.58;;
61903;SDS011;47857;52.270;6.804;2022-09-16T17:47:42;8.05;;;1.58;;
61903;SDS011;47857;52.270;6.804;2022-09-16T17:50:08;12.20;;;2.20;;
61903;SDS011;47857;52.270;6.804;2022-09-16T17:52:34;9.95;;;2.83;;
61903;SDS011;47857;52.270;6.804;2022-09-16T17:54:59;10.13;;;2.90;;
61903;SDS011;47857;52.270;6.804;2022-09-16T17:57:25;9.45;;;2.03;;
61903;SDS011;47857;52.270;6.804;2022-09-16T17:59:51;8.80;;;1.88;;
61903;SDS011;47857;52.270;6.804;2022-09-16T18:02:16;8.27;;;1.35;;
61903;SDS011;47857;52.270;6.804;2022-09-16T18:04:42;6.57;;;1.35;;